MDT,Max TemperatureF,Mean TemperatureF,Min TemperatureF,Max Dew PointF,MeanDew PointF,Min DewpointF,Max Humidity, Mean Humidity, Min Humidity, Max Sea Level PressureIn, Mean Sea Level PressureIn, Min Sea Level PressureIn, Max VisibilityMiles, Mean VisibilityMiles, Min VisibilityMiles, Max Wind SpeedMPH, Mean Wind SpeedMPH, Max Gust SpeedMPH,PrecipitationIn, CloudCover, Events, WindDirDegrees
2013-7-1,107,89,71,63,52,37,60,28,11,30.00,29.94,29.87,10,10,10,21,8,34,0.00,0,,3
2013-7-2,104,88,71,59,52,41,64,29,14,30.05,29.99,29.91,10,10,9,12,5,16,0.00,0,,327
2013-7-3,98,86,75,61,55,48,61,35,19,30.07,29.97,29.87,10,10,10,14,8,22,0.00,0,,301
2013-7-4,93,80,68,55,45,37,57,31,15,29.95,29.89,29.79,10,10,10,13,9,16,0.00,0,,313
2013-7-5,89,76,62,55,41,37,73,31,16,29.86,29.81,29.72,10,10,10,12,5,16,0.00,0,,319
2013-7-6,89,74,59,48,39,28,52,31,11,29.89,29.82,29.72,10,10,10,10,7,17,0.00,0,,322
2013-7-7,95,76,57,54,45,36,67,34,12,29.87,29.80,29.72,10,10,10,10,6,,0.00,0,,326
2013-7-8,93,76,59,54,45,36,72,35,15,29.99,29.92,29.78,10,10,5,10,4,17,0.00,0,,1
2013-7-9,96,79,62,50,40,27,52,28,9,30.14,30.04,29.95,10,10,9,10,7,,0.00,0,,317
2013-7-10,98,78,59,55,45,37,67,34,13,30.00,29.91,29.77,10,10,10,8,2,,0.00,0,,17
2013-7-11,91,78,66,55,43,32,56,30,17,29.94,29.87,29.79,10,10,8,17,7,32,0.00,0,,118
2013-7-12,93,74,55,54,45,32,88,40,13,29.92,29.85,29.73,10,10,6,16,3,22,0.00,0,,28
2013-7-13,84,72,59,45,32,25,52,23,15,30.09,30.01,29.87,10,10,10,16,11,23,0.00,0,,319
2013-7-14,93,73,53,48,39,28,72,32,10,30.10,30.01,29.90,10,10,10,9,3,,0.00,0,,335
2013-7-15,96,76,55,54,44,37,77,36,14,29.95,29.87,29.75,10,10,9,10,4,16,0.00,0,,291
2013-7-16,98,80,62,57,48,41,59,34,17,29.86,29.80,29.73,10,10,0,20,6,33,0.00,3,,235
2013-7-17,95,82,68,59,42,27,73,30,9,30.08,29.99,29.84,10,10,3,12,6,16,0.00,0,,19
2013-7-18,98,78,59,48,40,21,67,29,6,30.14,30.05,29.97,10,10,5,12,5,,0.00,0,,316
2013-7-19,100,78,55,48,42,25,77,34,7,30.05,29.96,29.85,10,10,6,10,3,,0.00,0,,332
2013-7-20,100,84,68,46,37,27,35,21,8,29.96,29.89,29.79,10,10,10,13,8,22,0.00,0,,310
2013-7-21,98,79,60,46,32,14,49,22,5,29.92,29.85,29.78,10,10,10,13,5,16,0.00,0,,342
2013-7-22,96,74,53,45,35,23,67,28,7,29.97,29.90,29.83,10,10,10,13,4,16,0.00,0,,351
2013-7-23,98,76,53,50,36,12,62,28,4,30.06,29.98,29.91,10,10,10,9,4,16,0.00,0,,312
2013-7-24,96,79,62,52,44,32,56,33,13,30.00,29.96,29.93,10,10,10,10,2,,0.00,0,,338
2013-7-25,100,80,60,54,44,28,77,35,8,30.04,30.00,29.96,10,10,10,13,3,17,0.00,0,,329
2013-7-26,100,78,57,54,46,32,77,36,9,30.11,30.03,29.94,10,10,10,10,3,,0.00,0,,306
2013-7-27,95,82,68,48,37,30,49,20,11,30.03,29.94,29.80,10,10,10,13,8,17,0.00,1,,323
2013-7-28,91,74,57,41,32,25,51,23,10,29.93,29.85,29.76,10,10,10,12,6,,0.00,0,,341
2013-7-29,89,73,57,46,35,23,55,26,9,29.95,29.89,29.82,10,10,10,13,7,,0.00,0,,327
2013-7-30,93,73,53,46,39,28,72,33,10,30.09,30.01,29.90,10,10,10,12,3,,0.00,0,,33
2013-7-31,93,73,53,46,40,36,67,33,13,30.07,29.97,29.85,10,10,9,14,4,16,0.00,0,,328